Time;durP1;ratioP1;P1;durP2;ratioP2;P2;SDS_P1;SDS_P2;PMS_P1;PMS_P2;Temp;Humidity;BMP_temperature;BMP_pressure;BME280_temperature;BME280_humidity;BME280_pressure;Samples;Min_cycle;Max_cycle;Signal;HPM_P1;HPM_P2
2021/09/30 00:00:43;;;;;;;;;;;;;;;;;;5006819;28;19910;-68
2021/09/30 00:03:09;;;;;;;;;;;;;;;;;;5007135;28;19905;-68
2021/09/30 00:05:35;;;;;;;;;;;;;;;;;;5010125;28;19997;-68
2021/09/30 00:08:02;;;;;;;;;;;;;;;;;;5010772;28;19969;-69
2021/09/30 00:10:28;;;;;;;;;;;;;;;;;;5010156;28;19917;-68
2021/09/30 00:13:10;;;;;;;;;;;;;;;;;;5010272;28;19905;-68
2021/09/30 00:34:43;;;;;;;;;;;;;;;;;;5009832;28;20419;-68
2021/09/30 00:52:43;;;;;;;;;;;;;;;;;;5009717;28;20012;-67
2021/09/30 00:56:05;;;;;;;;;;;;;;;;;;5009270;28;19906;-69
2021/09/30 01:23:17;;;;;;;;;;;;;;;;;;5008842;28;19906;-66
2021/09/30 01:51:58;;;;;;;;;;;;;;;;;;5008563;28;19928;-67
2021/09/30 02:22:53;;;;;;;;;;;;;;;;;;5007820;28;19906;-67
2021/09/30 02:31:17;;;;;;;;;;;;;;;;;;5007588;28;19914;-66
2021/09/30 02:58:29;;;;;;;;;;;;;;;;;;5007236;28;19913;-68
2021/09/30 03:00:54;;;;;;;;;;;;;;;;;;5007702;28;19929;-68
2021/09/30 03:03:21;;;;;;;;;;;;;;;;;;5007193;28;19905;-67
2021/09/30 03:05:53;;;;;;;;;;;;;;;;;;5007225;28;20368;-66
2021/09/30 03:08:19;;;;;;;;;;;;;;;;;;5007244;28;19906;-67
2021/09/30 03:10:48;;;;;;;;;;;;;;;;;;5005640;28;19968;-67
2021/09/30 03:13:14;;;;;;;;;;;;;;;;;;5007247;28;19913;-67
2021/09/30 03:15:44;;;;;;;;;;;;;;;;;;5007183;28;20284;-67
2021/09/30 03:20:43;;;;;;;;;;;;;;;;;;5007015;28;19906;-68
2021/09/30 03:23:09;;;;;;;;;;;;;;;;;;5006981;28;19913;-66
2021/09/30 03:25:35;;;;;;;;;;;;;;;;;;5007112;28;19936;-68
2021/09/30 03:28:01;;;;;;;;;;;;;;;;;;5007111;28;20385;-68
2021/09/30 03:30:27;;;;;;;;;;;;;;;;;;5006911;28;19960;-68
2021/09/30 03:32:53;;;;;;;;;;;;;;;;;;5006977;28;19916;-68
2021/09/30 03:35:19;;;;;;;;;;;;;;;;;;5007132;28;19906;-68
2021/09/30 03:37:45;;;;;;;;;;;;;;;;;;5007112;28;20447;-68
2021/09/30 03:40:11;;;;;;;;;;;;;;;;;;5010798;28;19933;-68
2021/09/30 03:42:37;;;;;;;;;;;;;;;;;;5011341;28;19956;-68
2021/09/30 03:45:03;;;;;;;;;;;;;;;;;;5010669;28;19906;-68
2021/09/30 03:47:29;;;;;;;;;;;;;;;;;;5010427;28;20028;-68
2021/09/30 03:49:55;;;;;;;;;;;;;;;;;;5010593;28;19906;-68
2021/09/30 04:00:03;;;;;;;;;;;;;;;;;;5010411;28;19906;-66
2021/09/30 04:02:29;;;;;;;;;;;;;;;;;;5010637;28;19906;-69
2021/09/30 04:04:55;;;;;;;;;;;;;;;;;;5009894;28;19921;-66
2021/09/30 04:07:22;;;;;;;;;;;;;;;;;;5010309;28;19913;-68
2021/09/30 04:09:48;;;;;;;;;;;;;;;;;;5010257;28;19968;-70
2021/09/30 04:12:14;;;;;;;;;;;;;;;;;;5010085;28;19985;-68
2021/09/30 04:14:40;;;;;;;;;;;;;;;;;;5010147;28;19906;-68
2021/09/30 04:17:06;;;;;;;;;;;;;;;;;;5010306;28;19956;-68
2021/09/30 04:19:32;;;;;;;;;;;;;;;;;;5010051;28;19905;-67
2021/09/30 04:21:57;;;;;;;;;;;;;;;;;;5010085;28;19976;-70
2021/09/30 04:24:23;;;;;;;;;;;;;;;;;;5010080;28;19910;-68
2021/09/30 04:26:50;;;;;;;;;;;;;;;;;;5010155;28;20352;-68
2021/09/30 04:29:15;;;;;;;;;;;;;;;;;;5009807;28;19912;-66
2021/09/30 04:31:42;;;;;;;;;;;;;;;;;;5009344;28;19949;-67
2021/09/30 04:34:07;;;;;;;;;;;;;;;;;;5009772;28;19945;-69
2021/09/30 04:36:33;;;;;;;;;;;;;;;;;;5009216;28;19913;-67
2021/09/30 04:38:59;;;;;;;;;;;;;;;;;;5009667;28;19913;-66
2021/09/30 04:41:25;;;;;;;;;;;;;;;;;;5009309;28;19997;-69
2021/09/30 04:43:51;;;;;;;;;;;;;;;;;;5009330;28;19906;-67
2021/09/30 04:46:17;;;;;;;;;;;;;;;;;;5009583;28;19906;-67
2021/09/30 04:48:43;;;;;;;;;;;;;;;;;;5009516;28;19906;-68
2021/09/30 04:51:09;;;;;;;;;;;;;;;;;;5009321;28;19960;-68
2021/09/30 04:53:35;;;;;;;;;;;;;;;;;;5009372;28;19912;-68
2021/09/30 04:56:01;;;;;;;;;;;;;;;;;;5009469;28;20008;-69
2021/09/30 04:58:27;;;;;;;;;;;;;;;;;;5009366;28;19910;-69
2021/09/30 05:00:53;;;;;;;;;;;;;;;;;;5009119;28;19906;-68
2021/09/30 05:03:19;;;;;;;;;;;;;;;;;;5009223;28;19905;-68
2021/09/30 05:05:45;;;;;;;;;;;;;;;;;;5008918;28;19918;-68
2021/09/30 05:08:10;;;;;;;;;;;;;;;;;;5009131;28;19910;-71
2021/09/30 05:10:36;;;;;;;;;;;;;;;;;;5009327;28;19949;-68
2021/09/30 05:13:11;;;;;;;;;;;;;;;;;;5009553;28;19906;-72
2021/09/30 05:15:37;;;;;;;;;;;;;;;;;;5008926;28;20368;-68
2021/09/30 05:18:03;;;;;;;;;;;;;;;;;;5009049;28;19913;-68
2021/09/30 05:20:29;;;;;;;;;;;;;;;;;;5009394;28;19969;-67
2021/09/30 05:22:55;;;;;;;;;;;;;;;;;;5008861;28;19951;-68
2021/09/30 05:25:21;;;;;;;;;;;;;;;;;;5009167;28;19905;-69
2021/09/30 05:27:47;;;;;;;;;;;;;;;;;;5008999;28;19909;-68
2021/09/30 05:30:13;;;;;;;;;;;;;;;;;;5008703;28;19906;-68
2021/09/30 05:32:39;;;;;;;;;;;;;;;;;;5008682;28;20400;-70
2021/09/30 05:35:05;;;;;;;;;;;;;;;;;;5008800;28;19912;-68
2021/09/30 05:37:31;;;;;;;;;;;;;;;;;;5008741;28;19933;-69
2021/09/30 05:39:57;;;;;;;;;;;;;;;;;;5008370;28;19909;-68
2021/09/30 05:42:24;;;;;;;;;;;;;;;;;;5008442;28;20360;-70
2021/09/30 05:44:50;;;;;;;;;;;;;;;;;;5008576;28;19906;-69
2021/09/30 05:47:16;;;;;;;;;;;;;;;;;;5008062;28;19965;-67
2021/09/30 05:49:42;;;;;;;;;;;;;;;;;;5008244;28;19905;-68
2021/09/30 05:52:07;;;;;;;;;;;;;;;;;;5008329;28;19916;-68
2021/09/30 05:54:33;;;;;;;;;;;;;;;;;;5008221;28;19906;-69
2021/09/30 05:56:59;;;;;;;;;;;;;;;;;;5008009;28;19906;-69
2021/09/30 05:59:25;;;;;;;;;;;;;;;;;;5008116;28;20424;-68
2021/09/30 06:12:35;;;;;;;;;;;;;;;;;;5007758;28;19917;-68
2021/09/30 06:15:02;;;;;;;;;;;;;;;;;;5007924;28;19906;-68
2021/09/30 06:17:30;;;;;;;;;;;;;;;;;;5007907;28;19912;-68
2021/09/30 06:19:56;;;;;;;;;;;;;;;;;;5007837;28;19909;-70
2021/09/30 06:22:22;;;;;;;;;;;;;;;;;;5007704;28;19933;-68
2021/09/30 06:24:48;;;;;;;;;;;;;;;;;;5007704;28;19929;-68
2021/09/30 06:27:14;;;;;;;;;;;;;;;;;;5007680;28;20004;-69
2021/09/30 06:29:40;;;;;;;;;;;;;;;;;;5007639;28;19906;-68
2021/09/30 06:32:05;;;;;;;;;;;;;;;;;;5007480;28;19972;-68
2021/09/30 06:34:31;;;;;;;;;;;;;;;;;;5007767;28;19909;-69
2021/09/30 06:36:57;;;;;;;;;;;;;;;;;;5007634;28;19928;-68
2021/09/30 06:39:23;;;;;;;;;;;;;;;;;;5007717;28;20390;-68
2021/09/30 06:41:49;;;;;;;;;;;;;;;;;;5007586;28;19905;-68
2021/09/30 06:44:15;;;;;;;;;;;;;;;;;;5007674;28;19945;-68
2021/09/30 06:46:41;;;;;;;;;;;;;;;;;;5007313;28;19921;-69
2021/09/30 06:49:07;;;;;;;;;;;;;;;;;;5007386;28;19917;-68
2021/09/30 06:51:35;;;;;;;;;;;;;;;;;;5007386;28;19910;-69
2021/09/30 06:54:01;;;;;;;;;;;;;;;;;;5007333;28;19960;-69
2021/09/30 06:56:28;;;;;;;;;;;;;;;;;;5014166;28;20315;-72
2021/09/30 06:58:58;;;;;;;;;;;;;;;;;;5006535;28;19905;-69
2021/09/30 07:01:24;;;;;;;;;;;;;;;;;;5007087;28;19918;-69
2021/09/30 07:03:51;;;;;;;;;;;;;;;;;;5005684;28;19969;-69
2021/09/30 07:06:16;;;;;;;;;;;;;;;;;;5006299;28;19921;-68
2021/09/30 07:08:42;;;;;;;;;;;;;;;;;;5001307;28;20375;-70
2021/09/30 07:11:08;;;;;;;;;;;;;;;;;;5003680;28;19916;-70
2021/09/30 07:13:34;;;;;;;;;;;;;;;;;;5005228;28;19909;-72
2021/09/30 07:16:00;;;;;;;;;;;;;;;;;;5005703;28;19972;-73
2021/09/30 07:18:26;;;;;;;;;;;;;;;;;;4999121;28;19937;-73
2021/09/30 07:21:00;;;;;;;;;;;;;;;;;;4999450;28;20384;-69
2021/09/30 07:23:26;;;;;;;;;;;;;;;;;;4999055;28;19916;-74
2021/09/30 07:25:52;;;;;;;;;;;;;;;;;;4997349;28;19996;-71
2021/09/30 07:28:19;;;;;;;;;;;;;;;;;;4999792;28;20345;-75
2021/09/30 07:30:45;;;;;;;;;;;;;;;;;;5000855;28;20188;-74
2021/09/30 07:33:11;;;;;;;;;;;;;;;;;;5001480;28;19913;-75
2021/09/30 07:35:37;;;;;;;;;;;;;;;;;;5003353;28;19909;-70
2021/09/30 07:38:03;;;;;;;;;;;;;;;;;;5009236;28;19906;-68
2021/09/30 07:40:31;;;;;;;;;;;;;;;;;;5025178;28;20272;-68
2021/09/30 07:42:57;;;;;;;;;;;;;;;;;;5025907;28;19920;-73
2021/09/30 07:45:23;;;;;;;;;;;;;;;;;;5027179;28;19906;-68
2021/09/30 07:47:48;;;;;;;;;;;;;;;;;;5021014;28;19997;-74
2021/09/30 07:50:14;;;;;;;;;;;;;;;;;;5021874;28;19905;-68
2021/09/30 07:52:40;;;;;;;;;;;;;;;;;;5025664;28;19909;-69
2021/09/30 07:55:06;;;;;;;;;;;;;;;;;;5027063;28;19952;-73
2021/09/30 07:57:41;;;;;;;;;;;;;;;;;;5027022;28;19905;-74
2021/09/30 08:00:07;;;;;;;;;;;;;;;;;;5024301;28;19960;-66
2021/09/30 08:02:33;;;;;;;;;;;;;;;;;;5021552;28;19905;-74
2021/09/30 08:04:59;;;;;;;;;;;;;;;;;;5025344;28;19906;-70
2021/09/30 08:07:25;;;;;;;;;;;;;;;;;;5027176;28;20008;-68
2021/09/30 08:09:51;;;;;;;;;;;;;;;;;;5029803;28;19913;-71
2021/09/30 08:12:16;;;;;;;;;;;;;;;;;;5020829;28;20350;-75
2021/09/30 08:14:42;;;;;;;;;;;;;;;;;;5023175;28;19906;-72
2021/09/30 08:17:08;;;;;;;;;;;;;;;;;;5024540;28;19968;-71
2021/09/30 08:19:34;;;;;;;;;;;;;;;;;;5024630;28;19932;-66
2021/09/30 08:22:00;;;;;;;;;;;;;;;;;;5024901;28;19905;-74
2021/09/30 08:24:26;;;;;;;;;;;;;;;;;;5022585;28;20380;-69
2021/09/30 08:26:52;;;;;;;;;;;;;;;;;;5023549;28;20006;-74
2021/09/30 08:29:18;;;;;;;;;;;;;;;;;;5021424;28;19910;-71
2021/09/30 08:31:44;;;;;;;;;;;;;;;;;;5029045;28;19910;-67
2021/09/30 08:34:10;;;;;;;;;;;;;;;;;;5028749;28;19912;-67
2021/09/30 08:36:39;;;;;;;;;;;;;;;;;;5028860;28;19906;-66
2021/09/30 08:39:08;;;;;;;;;;;;;;;;;;5027226;28;19905;-68
2021/09/30 08:41:34;;;;;;;;;;;;;;;;;;5029126;28;19910;-67
2021/09/30 08:44:00;;;;;;;;;;;;;;;;;;5028862;28;19906;-68
2021/09/30 08:46:26;;;;;;;;;;;;;;;;;;5028514;28;20438;-71
2021/09/30 08:48:52;;;;;;;;;;;;;;;;;;5025422;28;19977;-66
2021/09/30 08:51:18;;;;;;;;;;;;;;;;;;5024980;28;20012;-74
2021/09/30 08:53:44;;;;;;;;;;;;;;;;;;5026721;28;19905;-68
2021/09/30 08:56:10;;;;;;;;;;;;;;;;;;5028244;28;19971;-67
2021/09/30 08:58:36;;;;;;;;;;;;;;;;;;5027906;28;19936;-70
2021/09/30 09:01:02;;;;;;;;;;;;;;;;;;5026266;28;19941;-71
2021/09/30 09:03:28;;;;;;;;;;;;;;;;;;5026768;28;19912;-71
2021/09/30 09:05:54;;;;;;;;;;;;;;;;;;5028010;28;19918;-68
2021/09/30 09:08:20;;;;;;;;;;;;;;;;;;5028151;28;19905;-69
2021/09/30 09:10:45;;;;;;;;;;;;;;;;;;5027875;28;19948;-68
2021/09/30 09:13:12;;;;;;;;;;;;;;;;;;5024513;28;19910;-73
2021/09/30 09:15:38;;;;;;;;;;;;;;;;;;5024387;28;19913;-70
2021/09/30 09:18:04;;;;;;;;;;;;;;;;;;5025797;28;19905;-68
2021/09/30 09:20:30;;;;;;;;;;;;;;;;;;5025537;28;19905;-70
2021/09/30 09:22:56;;;;;;;;;;;;;;;;;;5027706;28;19913;-69
2021/09/30 09:25:23;;;;;;;;;;;;;;;;;;5025996;28;20349;-67
2021/09/30 09:27:49;;;;;;;;;;;;;;;;;;5024051;28;20317;-68
2021/09/30 09:30:15;;;;;;;;;;;;;;;;;;5025089;28;19968;-67
2021/09/30 09:32:41;;;;;;;;;;;;;;;;;;5027122;28;19909;-71
2021/09/30 09:35:07;;;;;;;;;;;;;;;;;;5026047;28;19909;-68
2021/09/30 09:37:38;;;;;;;;;;;;;;;;;;5026709;28;19905;-68
2021/09/30 09:40:04;;;;;;;;;;;;;;;;;;5027750;28;19913;-66
2021/09/30 09:42:30;;;;;;;;;;;;;;;;;;5027476;28;20281;-67
2021/09/30 09:44:56;;;;;;;;;;;;;;;;;;5027257;28;19906;-68
2021/09/30 09:47:22;;;;;;;;;;;;;;;;;;5024607;28;19912;-67
2021/09/30 09:49:48;;;;;;;;;;;;;;;;;;5027786;28;20403;-66
2021/09/30 09:52:21;;;;;;;;;;;;;;;;;;5027792;28;19916;-67
2021/09/30 09:54:47;;;;;;;;;;;;;;;;;;5026611;28;20431;-71
2021/09/30 09:57:13;;;;;;;;;;;;;;;;;;5023811;28;19925;-69
2021/09/30 09:59:42;;;;;;;;;;;;;;;;;;5025744;28;19916;-75
2021/09/30 10:02:08;;;;;;;;;;;;;;;;;;5019558;28;19912;-71
2021/09/30 10:04:34;;;;;;;;;;;;;;;;;;5025092;28;19941;-66
2021/09/30 10:07:00;;;;;;;;;;;;;;;;;;5026916;28;19925;-67
2021/09/30 10:09:26;;;;;;;;;;;;;;;;;;5026357;28;19906;-70
2021/09/30 10:11:51;;;;;;;;;;;;;;;;;;5026320;28;20280;-70
2021/09/30 10:14:20;;;;;;;;;;;;;;;;;;5026769;28;19992;-66
2021/09/30 10:16:48;;;;;;;;;;;;;;;;;;5026971;28;19906;-67
2021/09/30 10:19:14;;;;;;;;;;;;;;;;;;5026947;28;19913;-68
2021/09/30 10:21:40;;;;;;;;;;;;;;;;;;5026657;28;19936;-69
2021/09/30 10:24:06;;;;;;;;;;;;;;;;;;5027050;28;19909;-69
2021/09/30 10:26:32;;;;;;;;;;;;;;;;;;5026000;28;19906;-72
2021/09/30 10:28:59;;;;;;;;;;;;;;;;;;5026358;28;19949;-67
2021/09/30 10:31:25;;;;;;;;;;;;;;;;;;5026835;28;19973;-67
2021/09/30 10:33:52;;;;;;;;;;;;;;;;;;5026522;28;19906;-70
2021/09/30 10:36:18;;;;;;;;;;;;;;;;;;5025781;28;20360;-69
2021/09/30 10:38:43;;;;;;;;;;;;;;;;;;5005938;28;19910;-68
2021/09/30 10:41:09;;;;;;;;;;;;;;;;;;5007012;28;19909;-68
2021/09/30 10:43:35;;;;;;;;;;;;;;;;;;5006798;28;19906;-69
2021/09/30 10:46:01;;;;;;;;;;;;;;;;;;5006411;28;19913;-67
2021/09/30 10:48:28;;;;;;;;;;;;;;;;;;5006637;28;19909;-67
2021/09/30 10:50:54;;;;;;;;;;;;;;;;;;5006760;28;19906;-69
2021/09/30 10:53:20;;;;;;;;;;;;;;;;;;5006715;28;20355;-68
2021/09/30 10:55:46;;;;;;;;;;;;;;;;;;5005585;28;19906;-74
2021/09/30 10:58:12;;;;;;;;;;;;;;;;;;5006352;28;19917;-71
2021/09/30 11:00:38;;;;;;;;;;;;;;;;;;5007324;28;19905;-65
2021/09/30 11:03:10;;;;;;;;;;;;;;;;;;5006472;28;20001;-69
2021/09/30 11:05:36;;;;;;;;;;;;;;;;;;5006404;28;19921;-69
2021/09/30 11:08:02;;;;;;;;;;;;;;;;;;5004976;28;19916;-71
2021/09/30 11:10:28;;;;;;;;;;;;;;;;;;5006585;28;19961;-68
2021/09/30 11:12:54;;;;;;;;;;;;;;;;;;5003964;28;20380;-72
2021/09/30 11:15:20;;;;;;;;;;;;;;;;;;4997562;28;19926;-68
2021/09/30 11:17:46;;;;;;;;;;;;;;;;;;4996829;28;19910;-74
2021/09/30 11:20:11;;;;;;;;;;;;;;;;;;4996747;28;20004;-70
2021/09/30 11:22:41;;;;;;;;;;;;;;;;;;4998961;28;19953;-67
2021/09/30 11:25:07;;;;;;;;;;;;;;;;;;4995373;28;19921;-69
2021/09/30 11:27:33;;;;;;;;;;;;;;;;;;4998134;28;19905;-67
2021/09/30 11:29:59;;;;;;;;;;;;;;;;;;4997387;28;19906;-73
2021/09/30 11:32:25;;;;;;;;;;;;;;;;;;4998140;28;19920;-71
2021/09/30 11:34:51;;;;;;;;;;;;;;;;;;5015405;28;19912;-72
2021/09/30 11:37:17;;;;;;;;;;;;;;;;;;5018270;28;20265;-66
2021/09/30 11:39:45;;;;;;;;;;;;;;;;;;5019696;28;19906;-70
2021/09/30 11:42:11;;;;;;;;;;;;;;;;;;5019851;28;19912;-73
2021/09/30 11:44:37;;;;;;;;;;;;;;;;;;5017669;28;19915;-71
2021/09/30 11:47:03;;;;;;;;;;;;;;;;;;5015975;28;19909;-73
2021/09/30 11:49:32;;;;;;;;;;;;;;;;;;5010106;28;19906;-68
2021/09/30 11:51:58;;;;;;;;;;;;;;;;;;5003792;28;19948;-70
2021/09/30 11:54:24;;;;;;;;;;;;;;;;;;5023494;28;19967;-67
2021/09/30 11:56:53;;;;;;;;;;;;;;;;;;5022313;28;19909;-67
2021/09/30 11:59:19;;;;;;;;;;;;;;;;;;5022122;28;19992;-71
2021/09/30 12:01:45;;;;;;;;;;;;;;;;;;5024063;28;19956;-72
2021/09/30 12:04:12;;;;;;;;;;;;;;;;;;5023390;28;19916;-68
2021/09/30 12:06:38;;;;;;;;;;;;;;;;;;5018653;28;19921;-75
2021/09/30 12:09:04;;;;;;;;;;;;;;;;;;5020563;28;19916;-75
2021/09/30 12:11:34;;;;;;;;;;;;;;;;;;5021144;28;20308;-70
2021/09/30 12:14:00;;;;;;;;;;;;;;;;;;5021248;28;19955;-70
2021/09/30 12:16:26;;;;;;;;;;;;;;;;;;5020858;28;19912;-74
2021/09/30 12:18:52;;;;;;;;;;;;;;;;;;5020668;28;19953;-74
2021/09/30 12:21:18;;;;;;;;;;;;;;;;;;5020405;28;19996;-72
2021/09/30 12:23:44;;;;;;;;;;;;;;;;;;5019841;28;19936;-75
2021/09/30 12:26:10;;;;;;;;;;;;;;;;;;5021363;28;19937;-76
2021/09/30 12:28:36;;;;;;;;;;;;;;;;;;5019421;28;19913;-72
2021/09/30 12:31:02;;;;;;;;;;;;;;;;;;5019585;28;19905;-74
2021/09/30 12:33:28;;;;;;;;;;;;;;;;;;5020869;28;19917;-67
2021/09/30 12:35:54;;;;;;;;;;;;;;;;;;5026537;28;19959;-67
2021/09/30 12:38:20;;;;;;;;;;;;;;;;;;5025604;28;19968;-70
2021/09/30 12:40:46;;;;;;;;;;;;;;;;;;5025868;28;19969;-69
2021/09/30 12:43:12;;;;;;;;;;;;;;;;;;5028380;28;19909;-68
2021/09/30 12:45:38;;;;;;;;;;;;;;;;;;5028967;28;19909;-69
2021/09/30 12:48:25;;;;;;;;;;;;;;;;;;5027431;28;19976;-68
2021/09/30 12:50:50;;;;;;;;;;;;;;;;;;5026164;28;19905;-67
2021/09/30 12:53:16;;;;;;;;;;;;;;;;;;5026272;28;19944;-74
2021/09/30 12:55:42;;;;;;;;;;;;;;;;;;5021121;28;19941;-70
2021/09/30 12:58:08;;;;;;;;;;;;;;;;;;5019540;28;19909;-68
2021/09/30 13:00:34;;;;;;;;;;;;;;;;;;5020377;28;19905;-75
2021/09/30 13:03:00;;;;;;;;;;;;;;;;;;5020245;28;19906;-75
2021/09/30 13:05:26;;;;;;;;;;;;;;;;;;5017328;28;20012;-75
2021/09/30 13:10:38;;;;;;;;;;;;;;;;;;5024095;28;19905;-69
2021/09/30 13:13:04;;;;;;;;;;;;;;;;;;5026229;28;19909;-69
2021/09/30 13:15:30;;;;;;;;;;;;;;;;;;5024460;28;19936;-73
2021/09/30 13:17:55;;;;;;;;;;;;;;;;;;5016090;28;19905;-72
2021/09/30 13:20:23;;;;;;;;;;;;;;;;;;5019553;28;19905;-67
2021/09/30 13:22:52;;;;;;;;;;;;;;;;;;5043320;28;19909;-66
2021/09/30 13:25:18;;;;;;;;;;;;;;;;;;5043167;28;19940;-68
2021/09/30 13:27:43;;;;;;;;;;;;;;;;;;5028368;28;19905;-67
2021/09/30 13:30:09;;;;;;;;;;;;;;;;;;5028145;28;19905;-72
2021/09/30 13:32:35;;;;;;;;;;;;;;;;;;5019850;28;20316;-74
2021/09/30 13:35:01;;;;;;;;;;;;;;;;;;5019254;28;19964;-75
2021/09/30 13:37:27;;;;;;;;;;;;;;;;;;5013432;28;19913;-76
2021/09/30 13:39:56;;;;;;;;;;;;;;;;;;5015604;28;19909;-72
2021/09/30 13:42:22;;;;;;;;;;;;;;;;;;5022478;28;19905;-72
2021/09/30 13:44:48;;;;;;;;;;;;;;;;;;5020644;28;19941;-74
2021/09/30 13:47:14;;;;;;;;;;;;;;;;;;5019123;28;20312;-70
2021/09/30 13:49:40;;;;;;;;;;;;;;;;;;5022014;28;19938;-75
2021/09/30 13:52:06;;;;;;;;;;;;;;;;;;5015712;28;19913;-74
2021/09/30 13:54:32;;;;;;;;;;;;;;;;;;5021600;28;19989;-67
2021/09/30 13:56:58;;;;;;;;;;;;;;;;;;5018983;28;20327;-72
2021/09/30 13:59:23;;;;;;;;;;;;;;;;;;5038007;28;19905;-68
2021/09/30 14:01:49;;;;;;;;;;;;;;;;;;5015653;28;19935;-75
2021/09/30 14:04:15;;;;;;;;;;;;;;;;;;5013683;28;20288;-73
2021/09/30 14:06:41;;;;;;;;;;;;;;;;;;5014198;28;19999;-73
2021/09/30 14:09:07;;;;;;;;;;;;;;;;;;5012505;28;20582;-74
2021/09/30 14:11:33;;;;;;;;;;;;;;;;;;5012696;28;19920;-74
2021/09/30 14:13:59;;;;;;;;;;;;;;;;;;5014940;28;19912;-74
2021/09/30 14:16:25;;;;;;;;;;;;;;;;;;5012279;28;19909;-74
2021/09/30 14:18:51;;;;;;;;;;;;;;;;;;5011016;28;19916;-75
2021/09/30 14:21:17;;;;;;;;;;;;;;;;;;5012467;28;20343;-75
2021/09/30 14:23:43;;;;;;;;;;;;;;;;;;4998558;28;19960;-74
2021/09/30 14:26:09;;;;;;;;;;;;;;;;;;5002775;28;19909;-68
2021/09/30 14:28:35;;;;;;;;;;;;;;;;;;4999602;28;19910;-74
2021/09/30 14:31:01;;;;;;;;;;;;;;;;;;4999918;28;19941;-67
2021/09/30 14:33:27;;;;;;;;;;;;;;;;;;4999645;28;19921;-74
2021/09/30 14:35:53;;;;;;;;;;;;;;;;;;5000900;28;19909;-69
2021/09/30 14:38:18;;;;;;;;;;;;;;;;;;4998685;28;19984;-74
2021/09/30 14:40:50;;;;;;;;;;;;;;;;;;5000994;28;19909;-69
2021/09/30 14:43:15;;;;;;;;;;;;;;;;;;5003594;28;20352;-72
2021/09/30 14:45:41;;;;;;;;;;;;;;;;;;4998442;28;19956;-75
2021/09/30 14:48:07;;;;;;;;;;;;;;;;;;5000652;28;20008;-73
2021/09/30 14:50:33;;;;;;;;;;;;;;;;;;5000179;28;20372;-71
2021/09/30 14:52:59;;;;;;;;;;;;;;;;;;5001714;28;19976;-75
2021/09/30 14:55:25;;;;;;;;;;;;;;;;;;4999953;28;19913;-70
2021/09/30 14:57:51;;;;;;;;;;;;;;;;;;5001258;28;19917;-68
2021/09/30 15:00:17;;;;;;;;;;;;;;;;;;5005059;28;19914;-69
2021/09/30 15:02:43;;;;;;;;;;;;;;;;;;5003238;28;19960;-73
2021/09/30 15:05:09;;;;;;;;;;;;;;;;;;4998158;28;19906;-71
2021/09/30 15:07:35;;;;;;;;;;;;;;;;;;5001335;28;19906;-72
2021/09/30 15:10:01;;;;;;;;;;;;;;;;;;5006346;28;19913;-72
2021/09/30 15:12:27;;;;;;;;;;;;;;;;;;5006324;28;19914;-68
2021/09/30 15:14:53;;;;;;;;;;;;;;;;;;5008845;28;20328;-67
2021/09/30 15:17:45;;;;;;;;;;;;;;;;;;5013435;28;19906;-67
2021/09/30 15:22:37;;;;;;;;;;;;;;;;;;5026811;28;19910;-68
2021/09/30 15:25:03;;;;;;;;;;;;;;;;;;5026774;28;19940;-71
2021/09/30 15:27:29;;;;;;;;;;;;;;;;;;5025693;28;19913;-67
2021/09/30 15:29:55;;;;;;;;;;;;;;;;;;5025862;28;20404;-67
2021/09/30 15:32:21;;;;;;;;;;;;;;;;;;5024388;28;19910;-66
2021/09/30 15:34:48;;;;;;;;;;;;;;;;;;5027201;28;19959;-67
2021/09/30 15:37:14;;;;;;;;;;;;;;;;;;5028443;28;19931;-69
2021/09/30 15:39:40;;;;;;;;;;;;;;;;;;5029628;28;20395;-68
2021/09/30 15:42:06;;;;;;;;;;;;;;;;;;5029256;28;19906;-66
2021/09/30 15:44:34;;;;;;;;;;;;;;;;;;5030224;28;19906;-66
2021/09/30 15:47:00;;;;;;;;;;;;;;;;;;5029023;28;19905;-67
2021/09/30 15:49:26;;;;;;;;;;;;;;;;;;5030428;28;19951;-67
2021/09/30 15:51:52;;;;;;;;;;;;;;;;;;5030120;28;19909;-68
2021/09/30 15:54:17;;;;;;;;;;;;;;;;;;5028559;28;19909;-67
2021/09/30 15:56:43;;;;;;;;;;;;;;;;;;5028790;28;19905;-67
2021/09/30 15:59:09;;;;;;;;;;;;;;;;;;5025044;28;19912;-68
2021/09/30 16:01:35;;;;;;;;;;;;;;;;;;5028507;28;19913;-68
2021/09/30 16:04:01;;;;;;;;;;;;;;;;;;5027640;28;19928;-71
2021/09/30 16:06:27;;;;;;;;;;;;;;;;;;5025061;28;19921;-68
2021/09/30 16:08:53;;;;;;;;;;;;;;;;;;5029531;28;19933;-70
2021/09/30 16:11:19;;;;;;;;;;;;;;;;;;5029505;28;20368;-68
2021/09/30 16:13:45;;;;;;;;;;;;;;;;;;5029919;28;20043;-69
2021/09/30 16:16:11;;;;;;;;;;;;;;;;;;5029807;28;19944;-68
2021/09/30 16:18:37;;;;;;;;;;;;;;;;;;5029576;28;20035;-70
2021/09/30 16:21:03;;;;;;;;;;;;;;;;;;5029720;28;19905;-68
2021/09/30 16:23:29;;;;;;;;;;;;;;;;;;5029441;28;19912;-69
2021/09/30 16:25:55;;;;;;;;;;;;;;;;;;5029521;28;19906;-69
2021/09/30 16:28:21;;;;;;;;;;;;;;;;;;5028306;28;19929;-69
2021/09/30 16:30:53;;;;;;;;;;;;;;;;;;5029190;28;19913;-69
2021/09/30 16:33:19;;;;;;;;;;;;;;;;;;5027987;28;20023;-68
2021/09/30 16:35:44;;;;;;;;;;;;;;;;;;5027861;28;19913;-71
2021/09/30 16:38:10;;;;;;;;;;;;;;;;;;5029121;28;19913;-68
2021/09/30 16:40:36;;;;;;;;;;;;;;;;;;5028701;28;19905;-71
2021/09/30 16:43:02;;;;;;;;;;;;;;;;;;5029151;28;19905;-69
2021/09/30 16:45:28;;;;;;;;;;;;;;;;;;5028776;28;19905;-68
2021/09/30 16:47:54;;;;;;;;;;;;;;;;;;5029117;28;19905;-70
2021/09/30 16:50:20;;;;;;;;;;;;;;;;;;5029014;28;19944;-69
2021/09/30 16:52:49;;;;;;;;;;;;;;;;;;5029290;28;20380;-69
2021/09/30 16:55:15;;;;;;;;;;;;;;;;;;5028452;28;19960;-71
2021/09/30 16:57:44;;;;;;;;;;;;;;;;;;5028339;28;19992;-68
2021/09/30 17:00:10;;;;;;;;;;;;;;;;;;5028699;28;19906;-69
2021/09/30 17:02:36;;;;;;;;;;;;;;;;;;5028722;28;19911;-69
2021/09/30 17:05:02;;;;;;;;;;;;;;;;;;5028572;28;19933;-69
2021/09/30 17:07:27;;;;;;;;;;;;;;;;;;5028731;28;19920;-69
2021/09/30 17:09:53;;;;;;;;;;;;;;;;;;5028364;28;19906;-68
2021/09/30 17:12:19;;;;;;;;;;;;;;;;;;5027959;28;19909;-69
2021/09/30 17:14:46;;;;;;;;;;;;;;;;;;5025187;28;20265;-70
2021/09/30 17:17:11;;;;;;;;;;;;;;;;;;5024828;28;19910;-69
2021/09/30 17:19:37;;;;;;;;;;;;;;;;;;5025431;28;19932;-71
2021/09/30 17:22:03;;;;;;;;;;;;;;;;;;5026922;28;19952;-69
2021/09/30 17:24:30;;;;;;;;;;;;;;;;;;5028189;28;19977;-70
2021/09/30 17:26:56;;;;;;;;;;;;;;;;;;5028016;28;19909;-71
2021/09/30 17:29:23;;;;;;;;;;;;;;;;;;5026621;28;19905;-69
2021/09/30 17:31:49;;;;;;;;;;;;;;;;;;5027046;28;19988;-68
2021/09/30 17:34:15;;;;;;;;;;;;;;;;;;5028255;28;20403;-67
2021/09/30 17:36:41;;;;;;;;;;;;;;;;;;5028541;28;19913;-67
2021/09/30 17:39:07;;;;;;;;;;;;;;;;;;5028848;28;19905;-68
2021/09/30 17:41:33;;;;;;;;;;;;;;;;;;5027675;28;19905;-68
2021/09/30 17:43:59;;;;;;;;;;;;;;;;;;5028237;28;19913;-68
2021/09/30 17:46:25;;;;;;;;;;;;;;;;;;5026748;28;19905;-67
2021/09/30 17:48:51;;;;;;;;;;;;;;;;;;5028010;28;19905;-68
2021/09/30 17:51:17;;;;;;;;;;;;;;;;;;5027637;28;19976;-71
2021/09/30 17:53:43;;;;;;;;;;;;;;;;;;5027468;28;19941;-72
2021/09/30 17:56:10;;;;;;;;;;;;;;;;;;5027030;28;19905;-69
2021/09/30 17:58:36;;;;;;;;;;;;;;;;;;5026950;28;19964;-67
2021/09/30 18:01:02;;;;;;;;;;;;;;;;;;5027646;28;19928;-68
2021/09/30 18:03:28;;;;;;;;;;;;;;;;;;5027994;28;19977;-68
2021/09/30 18:05:54;;;;;;;;;;;;;;;;;;5027593;28;19917;-69
2021/09/30 18:08:22;;;;;;;;;;;;;;;;;;5026668;28;19912;-68
2021/09/30 18:10:48;;;;;;;;;;;;;;;;;;5027612;28;19913;-69
2021/09/30 18:13:14;;;;;;;;;;;;;;;;;;5027701;28;19976;-69
2021/09/30 18:15:40;;;;;;;;;;;;;;;;;;5027884;28;19913;-69
2021/09/30 18:18:06;;;;;;;;;;;;;;;;;;5027665;28;19905;-68
2021/09/30 18:20:39;;;;;;;;;;;;;;;;;;5027513;28;19932;-69
2021/09/30 18:23:11;;;;;;;;;;;;;;;;;;5027418;28;20391;-67
2021/09/30 18:25:37;;;;;;;;;;;;;;;;;;5027450;28;19906;-68
2021/09/30 18:28:03;;;;;;;;;;;;;;;;;;5027250;28;19955;-69
2021/09/30 18:30:29;;;;;;;;;;;;;;;;;;5027318;28;19971;-68
2021/09/30 18:32:55;;;;;;;;;;;;;;;;;;5027361;28;19960;-67
2021/09/30 18:35:21;;;;;;;;;;;;;;;;;;5027269;28;19913;-69
2021/09/30 18:37:47;;;;;;;;;;;;;;;;;;5027097;28;19912;-68
2021/09/30 18:40:13;;;;;;;;;;;;;;;;;;5027330;28;19949;-69
2021/09/30 18:42:40;;;;;;;;;;;;;;;;;;5027474;28;19948;-69
2021/09/30 18:45:06;;;;;;;;;;;;;;;;;;5027364;28;19953;-71
2021/09/30 18:47:32;;;;;;;;;;;;;;;;;;5027028;28;19917;-72
2021/09/30 18:49:58;;;;;;;;;;;;;;;;;;5026746;28;20008;-69
2021/09/30 18:52:24;;;;;;;;;;;;;;;;;;5026995;28;19944;-71
2021/09/30 18:54:49;;;;;;;;;;;;;;;;;;5027170;28;19963;-69
2021/09/30 18:57:16;;;;;;;;;;;;;;;;;;5026754;28;19905;-69
2021/09/30 18:59:42;;;;;;;;;;;;;;;;;;5026724;28;19912;-68
2021/09/30 19:02:10;;;;;;;;;;;;;;;;;;5026567;28;20012;-68
2021/09/30 19:04:36;;;;;;;;;;;;;;;;;;5026758;28;19905;-68
2021/09/30 19:07:02;;;;;;;;;;;;;;;;;;5026108;28;19924;-69
2021/09/30 19:09:29;;;;;;;;;;;;;;;;;;5029286;28;19909;-67
2021/09/30 19:11:55;;;;;;;;;;;;;;;;;;5030936;28;19937;-68
2021/09/30 19:14:21;;;;;;;;;;;;;;;;;;5030679;28;19968;-68
2021/09/30 19:16:46;;;;;;;;;;;;;;;;;;5030983;28;19906;-68
2021/09/30 19:19:12;;;;;;;;;;;;;;;;;;5030476;28;19981;-74
2021/09/30 19:21:39;;;;;;;;;;;;;;;;;;5030320;28;19912;-69
2021/09/30 19:24:05;;;;;;;;;;;;;;;;;;5030579;28;19906;-68
2021/09/30 19:26:31;;;;;;;;;;;;;;;;;;5030994;28;20383;-68
2021/09/30 19:28:57;;;;;;;;;;;;;;;;;;5030353;28;19909;-67
2021/09/30 19:31:23;;;;;;;;;;;;;;;;;;5030199;28;19909;-67